Terminal Aerodrome Forecast
Issued by NWS

Home | Current Version | Previous Version | Text Only | Print | Product List | Glossary On
Versions: 1 2 3 4 5 6 7 8 9 10 11 12 13 14 15 16 17 18 19 20 21 22 23 24
000
FTUS41 KBGM 051503 AAB
TAFELM
TAF AMD
KELM 051503Z 0515/0612 15010KT P6SM SCT025
      TEMPO 0515/0517 BKN025
     FM051700 18006KT P6SM SCT040
     FM060100 VRB03KT P6SM SKC
      TEMPO 0608/0612 2SM BR=

USA.gov is the U.S. government's official web portal to all federal, state and local government web resources and services.